sensor_id;sensor_type;location;lat;lon;timestamp;temperature;humidity
48043;DHT22;33988;47.992;8.820;2023-08-06T00:01:02;22.10;51.90
48043;DHT22;33988;47.992;8.820;2023-08-06T00:03:32;22.10;51.90
48043;DHT22;33988;47.992;8.820;2023-08-06T00:05:59;22.10;51.90
48043;DHT22;33988;47.992;8.820;2023-08-06T00:08:29;22.00;51.80
48043;DHT22;33988;47.992;8.820;2023-08-06T00:10:56;22.00;51.80
48043;DHT22;33988;47.992;8.820;2023-08-06T00:13:22;21.90;51.80
48043;DHT22;33988;47.992;8.820;2023-08-06T00:15:49;21.90;51.80
48043;DHT22;33988;47.992;8.820;2023-08-06T00:18:18;21.90;51.90
48043;DHT22;33988;47.992;8.820;2023-08-06T00:20:45;21.80;51.80
48043;DHT22;33988;47.992;8.820;2023-08-06T00:23:12;21.80;51.80
48043;DHT22;33988;47.992;8.820;2023-08-06T00:25:42;21.80;51.80
48043;DHT22;33988;47.992;8.820;2023-08-06T00:28:09;21.80;51.70
48043;DHT22;33988;47.992;8.820;2023-08-06T00:30:36;21.80;51.60
48043;DHT22;33988;47.992;8.820;2023-08-06T00:33:05;21.80;51.70
48043;DHT22;33988;47.992;8.820;2023-08-06T00:35:37;21.70;51.60
48043;DHT22;33988;47.992;8.820;2023-08-06T00:38:04;21.70;51.60
48043;DHT22;33988;47.992;8.820;2023-08-06T00:40:33;21.70;51.60
48043;DHT22;33988;47.992;8.820;2023-08-06T00:43:00;21.70;51.60
48043;DHT22;33988;47.992;8.820;2023-08-06T00:45:27;21.60;51.50
48043;DHT22;33988;47.992;8.820;2023-08-06T00:47:56;21.60;51.60
48043;DHT22;33988;47.992;8.820;2023-08-06T00:50:23;21.60;51.60
48043;DHT22;33988;47.992;8.820;2023-08-06T00:52:50;21.60;51.60
48043;DHT22;33988;47.992;8.820;2023-08-06T00:55:18;21.60;51.60
48043;DHT22;33988;47.992;8.820;2023-08-06T00:57:45;21.50;51.50
48043;DHT22;33988;47.992;8.820;2023-08-06T01:00:14;21.50;51.60
48043;DHT22;33988;47.992;8.820;2023-08-06T01:02:41;21.50;52.40
48043;DHT22;33988;47.992;8.820;2023-08-06T01:05:08;21.50;51.80
48043;DHT22;33988;47.992;8.820;2023-08-06T01:13:46;21.40;51.90
48043;DHT22;33988;47.992;8.820;2023-08-06T01:16:20;21.40;52.00
48043;DHT22;33988;47.992;8.820;2023-08-06T01:18:50;21.40;52.00
48043;DHT22;33988;47.992;8.820;2023-08-06T01:21:20;21.40;52.00
48043;DHT22;33988;47.992;8.820;2023-08-06T01:23:48;21.40;52.00
48043;DHT22;33988;47.992;8.820;2023-08-06T01:29:15;21.40;52.00
48043;DHT22;33988;47.992;8.820;2023-08-06T01:31:48;21.40;52.10
48043;DHT22;33988;47.992;8.820;2023-08-06T01:34:24;21.40;52.00
48043;DHT22;33988;47.992;8.820;2023-08-06T01:36:52;21.30;52.00
48043;DHT22;33988;47.992;8.820;2023-08-06T01:39:20;21.30;52.00
48043;DHT22;33988;47.992;8.820;2023-08-06T01:41:50;21.30;52.20
48043;DHT22;33988;47.992;8.820;2023-08-06T01:44:24;21.30;52.20
48043;DHT22;33988;47.992;8.820;2023-08-06T01:46:51;21.40;52.30
48043;DHT22;33988;47.992;8.820;2023-08-06T01:49:18;21.30;52.30
48043;DHT22;33988;47.992;8.820;2023-08-06T01:51:45;21.40;52.30
48043;DHT22;33988;47.992;8.820;2023-08-06T01:54:14;21.30;52.30
48043;DHT22;33988;47.992;8.820;2023-08-06T01:56:46;21.30;52.30
48043;DHT22;33988;47.992;8.820;2023-08-06T01:59:13;21.30;52.30
48043;DHT22;33988;47.992;8.820;2023-08-06T02:01:43;21.30;52.30
48043;DHT22;33988;47.992;8.820;2023-08-06T02:04:16;21.30;52.30
48043;DHT22;33988;47.992;8.820;2023-08-06T02:06:45;21.30;52.30
48043;DHT22;33988;47.992;8.820;2023-08-06T02:09:12;21.30;52.30
48043;DHT22;33988;47.992;8.820;2023-08-06T02:11:39;21.30;52.30
48043;DHT22;33988;47.992;8.820;2023-08-06T02:14:06;21.20;52.20
48043;DHT22;33988;47.992;8.820;2023-08-06T02:16:32;21.30;52.20
48043;DHT22;33988;47.992;8.820;2023-08-06T02:19:00;21.20;52.20
48043;DHT22;33988;47.992;8.820;2023-08-06T02:21:26;21.20;52.90
48043;DHT22;33988;47.992;8.820;2023-08-06T02:23:56;21.20;52.30
48043;DHT22;33988;47.992;8.820;2023-08-06T02:26:23;21.20;52.30
48043;DHT22;33988;47.992;8.820;2023-08-06T02:28:52;21.10;52.20
48043;DHT22;33988;47.992;8.820;2023-08-06T02:31:21;21.10;52.20
48043;DHT22;33988;47.992;8.820;2023-08-06T02:33:51;21.10;52.20
48043;DHT22;33988;47.992;8.820;2023-08-06T02:36:20;21.10;52.30
48043;DHT22;33988;47.992;8.820;2023-08-06T02:38:50;21.00;52.20
48043;DHT22;33988;47.992;8.820;2023-08-06T02:41:17;21.00;52.20
48043;DHT22;33988;47.992;8.820;2023-08-06T02:43:44;21.00;52.30
48043;DHT22;33988;47.992;8.820;2023-08-06T02:46:13;21.00;52.30
48043;DHT22;33988;47.992;8.820;2023-08-06T02:48:40;20.90;52.40
48043;DHT22;33988;47.992;8.820;2023-08-06T02:51:07;20.90;52.40
48043;DHT22;33988;47.992;8.820;2023-08-06T02:53:34;20.90;52.50
48043;DHT22;33988;47.992;8.820;2023-08-06T02:56:03;20.90;52.50
48043;DHT22;33988;47.992;8.820;2023-08-06T02:58:30;20.90;52.60
48043;DHT22;33988;47.992;8.820;2023-08-06T03:01:04;20.90;52.60
48043;DHT22;33988;47.992;8.820;2023-08-06T03:03:35;20.90;52.80
48043;DHT22;33988;47.992;8.820;2023-08-06T03:06:02;20.80;52.80
48043;DHT22;33988;47.992;8.820;2023-08-06T03:08:29;20.90;52.90
48043;DHT22;33988;47.992;8.820;2023-08-06T03:10:56;20.90;52.90
48043;DHT22;33988;47.992;8.820;2023-08-06T03:13:23;20.90;53.00
48043;DHT22;33988;47.992;8.820;2023-08-06T03:15:58;20.90;53.10
48043;DHT22;33988;47.992;8.820;2023-08-06T03:18:25;20.90;53.20
48043;DHT22;33988;47.992;8.820;2023-08-06T03:20:55;20.90;53.20
48043;DHT22;33988;47.992;8.820;2023-08-06T03:23:24;20.90;53.20
48043;DHT22;33988;47.992;8.820;2023-08-06T03:25:53;20.90;53.20
48043;DHT22;33988;47.992;8.820;2023-08-06T03:28:23;20.90;53.20
48043;DHT22;33988;47.992;8.820;2023-08-06T03:30:59;20.90;53.20
48043;DHT22;33988;47.992;8.820;2023-08-06T03:33:28;20.90;53.40
48043;DHT22;33988;47.992;8.820;2023-08-06T03:35:55;20.90;53.30
48043;DHT22;33988;47.992;8.820;2023-08-06T03:38:23;21.00;53.40
48043;DHT22;33988;47.992;8.820;2023-08-06T03:40:50;20.90;54.00
48043;DHT22;33988;47.992;8.820;2023-08-06T03:43:17;20.90;53.40
48043;DHT22;33988;47.992;8.820;2023-08-06T03:45:46;20.90;53.50
48043;DHT22;33988;47.992;8.820;2023-08-06T03:48:15;20.90;53.50
48043;DHT22;33988;47.992;8.820;2023-08-06T03:50:42;20.90;53.60
48043;DHT22;33988;47.992;8.820;2023-08-06T03:53:09;21.00;53.70
48043;DHT22;33988;47.992;8.820;2023-08-06T03:55:36;21.00;53.80
48043;DHT22;33988;47.992;8.820;2023-08-06T03:58:03;21.00;53.70
48043;DHT22;33988;47.992;8.820;2023-08-06T04:00:32;21.00;53.80
48043;DHT22;33988;47.992;8.820;2023-08-06T04:03:00;20.90;53.90
48043;DHT22;33988;47.992;8.820;2023-08-06T04:05:27;20.90;54.00
48043;DHT22;33988;47.992;8.820;2023-08-06T04:07:53;20.90;54.00
48043;DHT22;33988;47.992;8.820;2023-08-06T04:10:20;20.90;54.10
48043;DHT22;33988;47.992;8.820;2023-08-06T04:12:47;20.90;54.30
48043;DHT22;33988;47.992;8.820;2023-08-06T04:15:16;20.90;54.30
48043;DHT22;33988;47.992;8.820;2023-08-06T04:17:43;20.90;54.30
48043;DHT22;33988;47.992;8.820;2023-08-06T04:20:10;20.90;54.30
48043;DHT22;33988;47.992;8.820;2023-08-06T04:22:40;20.90;54.40
48043;DHT22;33988;47.992;8.820;2023-08-06T04:25:10;20.90;54.50
48043;DHT22;33988;47.992;8.820;2023-08-06T04:27:37;20.90;54.60
48043;DHT22;33988;47.992;8.820;2023-08-06T04:30:08;20.90;54.50
48043;DHT22;33988;47.992;8.820;2023-08-06T04:32:38;20.90;54.50
48043;DHT22;33988;47.992;8.820;2023-08-06T04:35:06;20.90;54.50
48043;DHT22;33988;47.992;8.820;2023-08-06T04:37:33;20.90;54.50
48043;DHT22;33988;47.992;8.820;2023-08-06T04:40:00;20.90;54.60
48043;DHT22;33988;47.992;8.820;2023-08-06T04:42:27;20.90;54.70
48043;DHT22;33988;47.992;8.820;2023-08-06T04:44:54;20.90;54.70
48043;DHT22;33988;47.992;8.820;2023-08-06T04:47:23;20.90;54.70
48043;DHT22;33988;47.992;8.820;2023-08-06T04:49:52;20.90;54.70
48043;DHT22;33988;47.992;8.820;2023-08-06T04:52:20;20.90;54.80
48043;DHT22;33988;47.992;8.820;2023-08-06T04:54:46;20.90;54.90
48043;DHT22;33988;47.992;8.820;2023-08-06T04:57:13;20.90;54.90
48043;DHT22;33988;47.992;8.820;2023-08-06T04:59:45;21.00;54.90
48043;DHT22;33988;47.992;8.820;2023-08-06T05:02:12;20.70;54.90
48043;DHT22;33988;47.992;8.820;2023-08-06T05:04:39;20.90;54.70
48043;DHT22;33988;47.992;8.820;2023-08-06T05:07:06;21.00;54.70
48043;DHT22;33988;47.992;8.820;2023-08-06T05:09:33;21.00;54.70
48043;DHT22;33988;47.992;8.820;2023-08-06T05:12:04;21.00;54.70
48043;DHT22;33988;47.992;8.820;2023-08-06T05:14:31;21.00;54.70
48043;DHT22;33988;47.992;8.820;2023-08-06T05:17:03;21.00;54.60
48043;DHT22;33988;47.992;8.820;2023-08-06T05:19:31;21.00;54.70
48043;DHT22;33988;47.992;8.820;2023-08-06T05:21:58;21.00;54.70
48043;DHT22;33988;47.992;8.820;2023-08-06T05:24:25;21.00;54.80
48043;DHT22;33988;47.992;8.820;2023-08-06T05:26:52;21.00;54.80
48043;DHT22;33988;47.992;8.820;2023-08-06T05:29:21;21.00;54.80
48043;DHT22;33988;47.992;8.820;2023-08-06T05:31:48;21.00;54.80
48043;DHT22;33988;47.992;8.820;2023-08-06T05:34:18;21.00;54.70
48043;DHT22;33988;47.992;8.820;2023-08-06T05:36:45;21.00;54.70
48043;DHT22;33988;47.992;8.820;2023-08-06T05:39:12;21.00;54.70
48043;DHT22;33988;47.992;8.820;2023-08-06T05:41:41;21.00;54.70
48043;DHT22;33988;47.992;8.820;2023-08-06T05:44:11;21.00;54.80
48043;DHT22;33988;47.992;8.820;2023-08-06T05:46:40;21.00;54.80
48043;DHT22;33988;47.992;8.820;2023-08-06T05:49:09;21.10;54.90
48043;DHT22;33988;47.992;8.820;2023-08-06T05:51:40;21.00;54.70
48043;DHT22;33988;47.992;8.820;2023-08-06T05:54:10;21.00;54.70
48043;DHT22;33988;47.992;8.820;2023-08-06T05:56:37;21.00;54.70
48043;DHT22;33988;47.992;8.820;2023-08-06T05:59:04;21.00;54.70
48043;DHT22;33988;47.992;8.820;2023-08-06T06:01:34;21.00;54.70
48043;DHT22;33988;47.992;8.820;2023-08-06T06:04:01;21.00;54.70
48043;DHT22;33988;47.992;8.820;2023-08-06T06:06:28;21.00;54.70
48043;DHT22;33988;47.992;8.820;2023-08-06T06:08:55;21.00;54.60
48043;DHT22;33988;47.992;8.820;2023-08-06T06:11:24;21.00;54.50
48043;DHT22;33988;47.992;8.820;2023-08-06T06:13:54;21.00;54.60
48043;DHT22;33988;47.992;8.820;2023-08-06T06:16:21;21.00;54.60
48043;DHT22;33988;47.992;8.820;2023-08-06T06:18:48;21.00;54.60
48043;DHT22;33988;47.992;8.820;2023-08-06T06:21:17;21.00;54.60
48043;DHT22;33988;47.992;8.820;2023-08-06T06:23:44;21.10;54.70
48043;DHT22;33988;47.992;8.820;2023-08-06T06:26:13;21.00;54.60
48043;DHT22;33988;47.992;8.820;2023-08-06T06:28:40;21.10;54.80
48043;DHT22;33988;47.992;8.820;2023-08-06T06:31:07;21.10;54.80
48043;DHT22;33988;47.992;8.820;2023-08-06T06:33:36;21.10;54.70
48043;DHT22;33988;47.992;8.820;2023-08-06T06:36:05;21.10;54.60
48043;DHT22;33988;47.992;8.820;2023-08-06T06:38:34;21.00;54.50
48043;DHT22;33988;47.992;8.820;2023-08-06T06:41:01;21.00;54.60
48043;DHT22;33988;47.992;8.820;2023-08-06T06:43:32;21.00;54.70
48043;DHT22;33988;47.992;8.820;2023-08-06T06:46:00;21.00;54.70
48043;DHT22;33988;47.992;8.820;2023-08-06T06:48:31;21.00;54.80
48043;DHT22;33988;47.992;8.820;2023-08-06T06:50:59;21.00;54.70
48043;DHT22;33988;47.992;8.820;2023-08-06T06:53:28;21.00;54.70
48043;DHT22;33988;47.992;8.820;2023-08-06T06:56:01;21.00;54.60
48043;DHT22;33988;47.992;8.820;2023-08-06T06:58:28;21.00;54.60
48043;DHT22;33988;47.992;8.820;2023-08-06T07:00:58;21.00;54.80
48043;DHT22;33988;47.992;8.820;2023-08-06T07:03:27;21.00;54.90
48043;DHT22;33988;47.992;8.820;2023-08-06T07:05:57;21.00;54.90
48043;DHT22;33988;47.992;8.820;2023-08-06T07:08:25;21.00;54.90
48043;DHT22;33988;47.992;8.820;2023-08-06T07:11:03;21.00;54.90
48043;DHT22;33988;47.992;8.820;2023-08-06T07:13:31;20.90;54.80
48043;DHT22;33988;47.992;8.820;2023-08-06T07:15:59;21.00;54.70
48043;DHT22;33988;47.992;8.820;2023-08-06T07:18:31;21.00;54.70
48043;DHT22;33988;47.992;8.820;2023-08-06T07:21:00;21.00;54.70
48043;DHT22;33988;47.992;8.820;2023-08-06T07:23:29;20.90;54.60
48043;DHT22;33988;47.992;8.820;2023-08-06T07:25:56;20.90;54.70
48043;DHT22;33988;47.992;8.820;2023-08-06T07:28:25;20.90;54.90
48043;DHT22;33988;47.992;8.820;2023-08-06T07:30:52;20.90;55.10
48043;DHT22;33988;47.992;8.820;2023-08-06T07:33:22;20.90;55.20
48043;DHT22;33988;47.992;8.820;2023-08-06T07:35:49;20.90;55.20
48043;DHT22;33988;47.992;8.820;2023-08-06T07:38:16;20.90;55.40
48043;DHT22;33988;47.992;8.820;2023-08-06T07:40:48;21.00;55.30
48043;DHT22;33988;47.992;8.820;2023-08-06T07:43:15;21.00;56.00
48043;DHT22;33988;47.992;8.820;2023-08-06T07:45:42;21.00;55.30
48043;DHT22;33988;47.992;8.820;2023-08-06T07:48:09;21.00;55.10
48043;DHT22;33988;47.992;8.820;2023-08-06T07:50:35;21.00;55.10
48043;DHT22;33988;47.992;8.820;2023-08-06T07:53:03;21.00;55.10
48043;DHT22;33988;47.992;8.820;2023-08-06T07:55:30;21.00;55.10
48043;DHT22;33988;47.992;8.820;2023-08-06T07:57:59;21.00;55.00
48043;DHT22;33988;47.992;8.820;2023-08-06T08:00:29;21.00;54.90
48043;DHT22;33988;47.992;8.820;2023-08-06T08:02:58;21.00;54.80
48043;DHT22;33988;47.992;8.820;2023-08-06T08:05:30;20.90;54.80
48043;DHT22;33988;47.992;8.820;2023-08-06T08:07:57;20.90;54.90
48043;DHT22;33988;47.992;8.820;2023-08-06T08:10:26;20.90;54.90
48043;DHT22;33988;47.992;8.820;2023-08-06T08:12:58;20.90;54.90
48043;DHT22;33988;47.992;8.820;2023-08-06T08:15:28;20.90;54.90
48043;DHT22;33988;47.992;8.820;2023-08-06T08:17:58;20.80;54.90
48043;DHT22;33988;47.992;8.820;2023-08-06T08:20:26;20.80;55.10
48043;DHT22;33988;47.992;8.820;2023-08-06T08:22:59;20.80;55.10
48043;DHT22;33988;47.992;8.820;2023-08-06T08:25:27;20.80;55.20
48043;DHT22;33988;47.992;8.820;2023-08-06T08:27:57;20.80;55.30
48043;DHT22;33988;47.992;8.820;2023-08-06T08:30:27;20.90;55.40
48043;DHT22;33988;47.992;8.820;2023-08-06T08:32:54;20.90;55.50
48043;DHT22;33988;47.992;8.820;2023-08-06T08:35:21;20.90;55.50
48043;DHT22;33988;47.992;8.820;2023-08-06T08:37:51;20.90;55.50
48043;DHT22;33988;47.992;8.820;2023-08-06T08:40:18;20.90;55.50
48043;DHT22;33988;47.992;8.820;2023-08-06T08:42:45;20.90;55.50
48043;DHT22;33988;47.992;8.820;2023-08-06T08:45:19;20.90;55.50
48043;DHT22;33988;47.992;8.820;2023-08-06T08:47:49;20.90;55.30
48043;DHT22;33988;47.992;8.820;2023-08-06T08:50:17;20.90;55.40
48043;DHT22;33988;47.992;8.820;2023-08-06T08:52:46;20.90;55.50
48043;DHT22;33988;47.992;8.820;2023-08-06T08:55:15;20.90;55.50
48043;DHT22;33988;47.992;8.820;2023-08-06T08:57:43;20.90;55.50
48043;DHT22;33988;47.992;8.820;2023-08-06T09:00:15;20.90;55.60
48043;DHT22;33988;47.992;8.820;2023-08-06T09:02:44;20.90;55.60
48043;DHT22;33988;47.992;8.820;2023-08-06T09:05:14;20.90;55.60
48043;DHT22;33988;47.992;8.820;2023-08-06T09:07:42;20.90;55.70
48043;DHT22;33988;47.992;8.820;2023-08-06T09:10:14;20.90;56.00
48043;DHT22;33988;47.992;8.820;2023-08-06T09:12:45;20.90;56.00
48043;DHT22;33988;47.992;8.820;2023-08-06T09:15:15;20.90;56.00
48043;DHT22;33988;47.992;8.820;2023-08-06T09:17:41;21.00;56.20
48043;DHT22;33988;47.992;8.820;2023-08-06T09:20:14;21.00;56.20
48043;DHT22;33988;47.992;8.820;2023-08-06T09:22:42;21.00;56.10
48043;DHT22;33988;47.992;8.820;2023-08-06T09:25:13;21.00;56.00
48043;DHT22;33988;47.992;8.820;2023-08-06T09:27:48;21.10;56.00
48043;DHT22;33988;47.992;8.820;2023-08-06T09:30:35;21.10;56.00
48043;DHT22;33988;47.992;8.820;2023-08-06T09:33:08;21.20;56.30
48043;DHT22;33988;47.992;8.820;2023-08-06T09:35:40;21.20;56.20
48043;DHT22;33988;47.992;8.820;2023-08-06T09:38:09;21.20;56.10
48043;DHT22;33988;47.992;8.820;2023-08-06T09:40:40;21.20;56.10
48043;DHT22;33988;47.992;8.820;2023-08-06T09:43:11;21.30;56.10
48043;DHT22;33988;47.992;8.820;2023-08-06T09:45:41;21.30;56.10
48043;DHT22;33988;47.992;8.820;2023-08-06T09:48:10;21.30;56.10
48043;DHT22;33988;47.992;8.820;2023-08-06T09:50:40;21.30;56.00
48043;DHT22;33988;47.992;8.820;2023-08-06T09:53:08;21.30;56.00
48043;DHT22;33988;47.992;8.820;2023-08-06T09:55:36;21.30;56.00
48043;DHT22;33988;47.992;8.820;2023-08-06T09:58:03;21.30;55.90
48043;DHT22;33988;47.992;8.820;2023-08-06T10:00:33;21.40;55.90
48043;DHT22;33988;47.992;8.820;2023-08-06T10:03:06;21.40;55.90
48043;DHT22;33988;47.992;8.820;2023-08-06T10:05:37;21.40;56.10
48043;DHT22;33988;47.992;8.820;2023-08-06T10:08:06;21.40;56.20
48043;DHT22;33988;47.992;8.820;2023-08-06T10:10:36;21.40;56.30
48043;DHT22;33988;47.992;8.820;2023-08-06T10:13:05;21.40;56.30
48043;DHT22;33988;47.992;8.820;2023-08-06T10:15:33;21.40;56.40
48043;DHT22;33988;47.992;8.820;2023-08-06T10:18:05;21.50;56.60
48043;DHT22;33988;47.992;8.820;2023-08-06T10:20:35;21.50;56.50
48043;DHT22;33988;47.992;8.820;2023-08-06T10:23:06;21.50;56.40
48043;DHT22;33988;47.992;8.820;2023-08-06T10:25:40;21.60;56.50
48043;DHT22;33988;47.992;8.820;2023-08-06T10:28:11;21.60;56.30
48043;DHT22;33988;47.992;8.820;2023-08-06T10:30:48;21.60;56.20
48043;DHT22;33988;47.992;8.820;2023-08-06T10:33:19;21.70;56.00
48043;DHT22;33988;47.992;8.820;2023-08-06T10:35:48;21.70;55.80
48043;DHT22;33988;47.992;8.820;2023-08-06T10:38:20;21.70;55.60
48043;DHT22;33988;47.992;8.820;2023-08-06T10:43:35;21.70;55.50
48043;DHT22;33988;47.992;8.820;2023-08-06T10:46:10;21.60;55.40
48043;DHT22;33988;47.992;8.820;2023-08-06T10:48:43;21.60;55.40
48043;DHT22;33988;47.992;8.820;2023-08-06T10:51:13;21.70;55.30
48043;DHT22;33988;47.992;8.820;2023-08-06T10:53:45;21.70;55.30
48043;DHT22;33988;47.992;8.820;2023-08-06T10:58:41;21.60;55.20
48043;DHT22;33988;47.992;8.820;2023-08-06T11:01:14;21.60;55.20
48043;DHT22;33988;47.992;8.820;2023-08-06T11:03:43;21.60;55.30
48043;DHT22;33988;47.992;8.820;2023-08-06T11:06:20;21.60;55.30
48043;DHT22;33988;47.992;8.820;2023-08-06T11:08:52;21.60;55.40
48043;DHT22;33988;47.992;8.820;2023-08-06T11:11:21;21.60;55.40
48043;DHT22;33988;47.992;8.820;2023-08-06T11:13:51;21.60;55.50
48043;DHT22;33988;47.992;8.820;2023-08-06T11:16:20;21.60;55.60
48043;DHT22;33988;47.992;8.820;2023-08-06T11:18:51;21.60;55.40
48043;DHT22;33988;47.992;8.820;2023-08-06T11:21:22;21.60;55.40
48043;DHT22;33988;47.992;8.820;2023-08-06T11:23:51;21.60;55.40
48043;DHT22;33988;47.992;8.820;2023-08-06T11:26:22;21.60;55.40
48043;DHT22;33988;47.992;8.820;2023-08-06T11:28:52;21.60;55.70
48043;DHT22;33988;47.992;8.820;2023-08-06T11:31:23;21.70;55.50
48043;DHT22;33988;47.992;8.820;2023-08-06T11:33:51;21.60;55.40
48043;DHT22;33988;47.992;8.820;2023-08-06T11:36:29;21.70;55.40
48043;DHT22;33988;47.992;8.820;2023-08-06T11:39:00;21.60;55.40
48043;DHT22;33988;47.992;8.820;2023-08-06T11:41:30;21.70;55.50
48043;DHT22;33988;47.992;8.820;2023-08-06T11:43:59;21.70;55.40
48043;DHT22;33988;47.992;8.820;2023-08-06T11:46:26;21.70;55.30
48043;DHT22;33988;47.992;8.820;2023-08-06T11:48:58;21.60;55.20
48043;DHT22;33988;47.992;8.820;2023-08-06T11:51:26;21.60;55.20
48043;DHT22;33988;47.992;8.820;2023-08-06T11:53:57;21.60;55.30
48043;DHT22;33988;47.992;8.820;2023-08-06T11:56:25;21.60;55.40
48043;DHT22;33988;47.992;8.820;2023-08-06T11:58:54;21.60;55.30
48043;DHT22;33988;47.992;8.820;2023-08-06T12:01:21;21.60;55.40
48043;DHT22;33988;47.992;8.820;2023-08-06T12:03:48;21.60;55.40
48043;DHT22;33988;47.992;8.820;2023-08-06T12:06:15;21.60;55.50
48043;DHT22;33988;47.992;8.820;2023-08-06T12:08:42;21.60;55.50
48043;DHT22;33988;47.992;8.820;2023-08-06T12:11:11;21.60;55.50
48043;DHT22;33988;47.992;8.820;2023-08-06T12:13:39;21.60;55.60
48043;DHT22;33988;47.992;8.820;2023-08-06T12:16:05;21.50;55.40
48043;DHT22;33988;47.992;8.820;2023-08-06T12:18:35;21.50;55.50
48043;DHT22;33988;47.992;8.820;2023-08-06T12:21:02;21.50;55.50
48043;DHT22;33988;47.992;8.820;2023-08-06T12:23:29;21.50;55.50
48043;DHT22;33988;47.992;8.820;2023-08-06T12:25:56;21.50;55.50
48043;DHT22;33988;47.992;8.820;2023-08-06T12:28:23;21.50;55.40
48043;DHT22;33988;47.992;8.820;2023-08-06T12:30:50;21.50;55.40
48043;DHT22;33988;47.992;8.820;2023-08-06T12:33:21;21.50;56.30
48043;DHT22;33988;47.992;8.820;2023-08-06T12:35:48;21.50;55.60
48043;DHT22;33988;47.992;8.820;2023-08-06T12:38:15;21.50;55.70
48043;DHT22;33988;47.992;8.820;2023-08-06T12:40:44;21.50;55.70
48043;DHT22;33988;47.992;8.820;2023-08-06T12:43:11;21.50;55.70
48043;DHT22;33988;47.992;8.820;2023-08-06T12:45:38;21.60;55.70
48043;DHT22;33988;47.992;8.820;2023-08-06T12:48:08;21.60;55.70
48043;DHT22;33988;47.992;8.820;2023-08-06T12:50:37;21.60;55.80
48043;DHT22;33988;47.992;8.820;2023-08-06T12:53:07;21.60;55.70
48043;DHT22;33988;47.992;8.820;2023-08-06T12:55:36;21.60;55.60
48043;DHT22;33988;47.992;8.820;2023-08-06T12:58:03;21.60;55.50
48043;DHT22;33988;47.992;8.820;2023-08-06T13:00:35;21.70;55.60
48043;DHT22;33988;47.992;8.820;2023-08-06T13:03:02;21.70;55.60
48043;DHT22;33988;47.992;8.820;2023-08-06T13:05:32;21.70;55.60
48043;DHT22;33988;47.992;8.820;2023-08-06T13:08:03;21.70;55.50
48043;DHT22;33988;47.992;8.820;2023-08-06T13:10:30;21.70;55.50
48043;DHT22;33988;47.992;8.820;2023-08-06T13:12:58;21.70;55.50
48043;DHT22;33988;47.992;8.820;2023-08-06T13:15:27;21.70;55.40
48043;DHT22;33988;47.992;8.820;2023-08-06T13:17:54;21.70;55.50
48043;DHT22;33988;47.992;8.820;2023-08-06T13:20:21;21.70;55.40
48043;DHT22;33988;47.992;8.820;2023-08-06T13:22:49;21.70;55.20
48043;DHT22;33988;47.992;8.820;2023-08-06T13:25:19;21.70;55.10
48043;DHT22;33988;47.992;8.820;2023-08-06T13:27:50;21.70;55.00
48043;DHT22;33988;47.992;8.820;2023-08-06T13:30:19;21.70;54.80
48043;DHT22;33988;47.992;8.820;2023-08-06T13:32:47;21.60;54.70
48043;DHT22;33988;47.992;8.820;2023-08-06T13:35:16;21.60;54.70
48043;DHT22;33988;47.992;8.820;2023-08-06T13:37:43;21.60;54.80
48043;DHT22;33988;47.992;8.820;2023-08-06T13:40:10;21.60;54.80
48043;DHT22;33988;47.992;8.820;2023-08-06T13:42:40;21.60;54.70
48043;DHT22;33988;47.992;8.820;2023-08-06T13:45:07;21.50;54.70
48043;DHT22;33988;47.992;8.820;2023-08-06T13:47:35;21.50;54.80
48043;DHT22;33988;47.992;8.820;2023-08-06T13:50:04;21.50;55.00
48043;DHT22;33988;47.992;8.820;2023-08-06T13:52:32;21.50;55.10
48043;DHT22;33988;47.992;8.820;2023-08-06T13:55:02;21.50;55.20
48043;DHT22;33988;47.992;8.820;2023-08-06T13:57:32;21.50;55.30
48043;DHT22;33988;47.992;8.820;2023-08-06T14:00:00;21.50;55.20
48043;DHT22;33988;47.992;8.820;2023-08-06T14:02:28;21.50;55.40
48043;DHT22;33988;47.992;8.820;2023-08-06T14:04:56;21.50;55.40
48043;DHT22;33988;47.992;8.820;2023-08-06T14:07:25;21.60;55.60
48043;DHT22;33988;47.992;8.820;2023-08-06T14:09:56;21.60;55.60
48043;DHT22;33988;47.992;8.820;2023-08-06T14:12:24;21.60;55.40
48043;DHT22;33988;47.992;8.820;2023-08-06T14:14:51;21.60;55.40
48043;DHT22;33988;47.992;8.820;2023-08-06T14:17:18;21.60;55.40
48043;DHT22;33988;47.992;8.820;2023-08-06T14:19:45;21.60;55.30
48043;DHT22;33988;47.992;8.820;2023-08-06T14:22:12;21.60;55.30
48043;DHT22;33988;47.992;8.820;2023-08-06T14:24:39;21.60;55.40
48043;DHT22;33988;47.992;8.820;2023-08-06T14:27:09;21.60;55.60
48043;DHT22;33988;47.992;8.820;2023-08-06T14:29:36;21.60;55.60
48043;DHT22;33988;47.992;8.820;2023-08-06T14:32:08;21.60;55.60
48043;DHT22;33988;47.992;8.820;2023-08-06T14:34:35;21.70;55.60
48043;DHT22;33988;47.992;8.820;2023-08-06T14:37:02;21.60;55.40
48043;DHT22;33988;47.992;8.820;2023-08-06T14:39:32;21.70;55.50
48043;DHT22;33988;47.992;8.820;2023-08-06T14:41:59;21.70;55.60
48043;DHT22;33988;47.992;8.820;2023-08-06T14:44:26;21.70;55.50
48043;DHT22;33988;47.992;8.820;2023-08-06T14:46:53;21.70;55.20
48043;DHT22;33988;47.992;8.820;2023-08-06T14:49:23;21.70;55.10
48043;DHT22;33988;47.992;8.820;2023-08-06T14:51:50;21.70;54.80
48043;DHT22;33988;47.992;8.820;2023-08-06T14:54:17;21.80;54.90
48043;DHT22;33988;47.992;8.820;2023-08-06T14:56:47;21.70;54.80
48043;DHT22;33988;47.992;8.820;2023-08-06T14:59:14;21.70;54.60
48043;DHT22;33988;47.992;8.820;2023-08-06T15:01:43;21.70;54.50
48043;DHT22;33988;47.992;8.820;2023-08-06T15:04:12;21.70;54.50
48043;DHT22;33988;47.992;8.820;2023-08-06T15:06:39;21.70;54.50
48043;DHT22;33988;47.992;8.820;2023-08-06T15:09:07;21.70;54.50
48043;DHT22;33988;47.992;8.820;2023-08-06T15:11:39;21.70;54.60
48043;DHT22;33988;47.992;8.820;2023-08-06T15:14:06;21.80;54.70
48043;DHT22;33988;47.992;8.820;2023-08-06T15:16:34;21.80;54.70
48043;DHT22;33988;47.992;8.820;2023-08-06T15:19:01;21.80;55.30
48043;DHT22;33988;47.992;8.820;2023-08-06T15:21:28;21.80;54.40
48043;DHT22;33988;47.992;8.820;2023-08-06T15:23:55;21.80;54.30
48043;DHT22;33988;47.992;8.820;2023-08-06T15:26:25;21.80;54.10
48043;DHT22;33988;47.992;8.820;2023-08-06T15:28:54;21.80;53.90
48043;DHT22;33988;47.992;8.820;2023-08-06T15:31:35;21.80;53.50
48043;DHT22;33988;47.992;8.820;2023-08-06T15:34:07;21.70;53.40
48043;DHT22;33988;47.992;8.820;2023-08-06T15:36:34;21.70;53.40
48043;DHT22;33988;47.992;8.820;2023-08-06T15:39:04;21.60;53.40
48043;DHT22;33988;47.992;8.820;2023-08-06T15:41:31;21.60;53.40
48043;DHT22;33988;47.992;8.820;2023-08-06T15:44:00;21.60;53.50
48043;DHT22;33988;47.992;8.820;2023-08-06T15:46:30;21.50;53.30
48043;DHT22;33988;47.992;8.820;2023-08-06T15:49:01;21.50;53.20
48043;DHT22;33988;47.992;8.820;2023-08-06T15:51:29;21.50;53.10
48043;DHT22;33988;47.992;8.820;2023-08-06T15:53:59;21.40;53.20